Norris Observed Data For Previous 48 Hours

Caption
Day and Hour Reservoir Elevation (behind dam)* Tailwater Elevation (below dam)* Average Hourly Discharge*
9/20/2017 2 AM EDT 1,007.27 821.59 20
9/20/2017 3 AM EDT 1,007.27 821.42 20
9/20/2017 4 AM EDT 1,007.25 823.54 403
9/20/2017 5 AM EDT 1,007.29 823.72 3,199
9/20/2017 6 AM EDT 1,007.28 822.11 20
9/20/2017 7 AM EDT 1,007.27 821.76 20
9/20/2017 8 AM EDT 1,007.27 821.57 20
9/20/2017 9 AM EDT 1,007.28 821.40 20
9/20/2017 10 AM EDT 1,007.27 821.23 20
9/20/2017 11 AM EDT 1,007.27 821.07 20
9/20/2017 12 PM EDT 1,007.27 820.93 20
9/20/2017 1 PM EDT 1,007.29 820.80 20
9/20/2017 2 PM EDT 1,007.29 820.68 20
9/20/2017 3 PM EDT 1,007.24 823.38 404
9/20/2017 4 PM EDT 1,007.25 826.08 3,846
9/20/2017 5 PM EDT 1,007.25 826.90 6,708
9/20/2017 6 PM EDT 1,007.23 826.90 6,712
9/20/2017 7 PM EDT 1,007.22 826.87 6,706
9/20/2017 8 PM EDT 1,007.20 826.88 6,703
9/20/2017 9 PM EDT 1,007.18 826.89 6,677
9/20/2017 10 PM EDT 1,007.16 826.91 6,681
9/20/2017 11 PM EDT 1,007.15 826.85 6,696
9/21/2017 12 AM EDT 1,007.13 826.91 6,693
9/21/2017 1 AM EDT 1,007.14 824.86 3,504
9/21/2017 2 AM EDT 1,007.15 822.27 150
9/21/2017 3 AM EDT 1,007.14 821.82 20
9/21/2017 4 AM EDT 1,007.15 821.61 20
9/21/2017 5 AM EDT 1,007.15 821.44 20
9/21/2017 6 AM EDT 1,007.14 821.28 20
9/21/2017 7 AM EDT 1,007.15 821.11 20
9/21/2017 8 AM EDT 1,007.15 820.96 20
9/21/2017 9 AM EDT 1,007.15 820.83 20
9/21/2017 10 AM EDT 1,007.12 821.91 103
9/21/2017 11 AM EDT 1,007.10 825.96 3,822
9/21/2017 12 PM EDT 1,007.10 826.82 6,703
9/21/2017 1 PM EDT 1,007.10 826.88 6,678
9/21/2017 2 PM EDT 1,007.10 824.88 3,520
9/21/2017 3 PM EDT 1,007.10 824.81 3,406
9/21/2017 4 PM EDT 1,007.07 824.79 3,417
9/21/2017 5 PM EDT 1,007.08 824.77 3,409
9/21/2017 6 PM EDT 1,007.05 824.82 3,416
9/21/2017 7 PM EDT 1,007.07 824.79 3,418
9/21/2017 8 PM EDT 1,007.06 824.79 3,417
9/21/2017 9 PM EDT 1,007.03 824.81 3,395
9/21/2017 10 PM EDT 1,007.05 824.83 3,416
9/21/2017 11 PM EDT 1,007.03 824.86 3,419
9/22/2017 12 AM EDT 1,007.01 824.88 3,434
9/22/2017 1 AM EDT 1,007.01 824.82 3,415
9/22/2017 2 AM EDT 1,007.01 824.86 3,417
9/22/2017 3 AM EDT 1,007.01 824.77 3,412
9/22/2017 4 AM EDT 1,007.00 824.86 3,412
9/22/2017 5 AM EDT 1,006.99 824.80 3,402
9/22/2017 6 AM EDT 1,006.97 824.90 3,424
9/22/2017 7 AM EDT 1,006.97 824.80 3,413
9/22/2017 8 AM EDT 1,006.97 824.83 3,407
9/22/2017 9 AM EDT 1,006.96 824.83 3,405
9/22/2017 10 AM EDT 1,006.93 824.85 3,409
9/22/2017 11 AM EDT 1,006.92 824.82 3,413
9/22/2017 12 PM EDT 1,006.89 825.43 3,468
9/22/2017 1 PM EDT 1,006.89 826.86 6,694
9/22/2017 2 PM EDT 1,006.87 826.96 6,708
9/22/2017 3 PM EDT 1,006.87 826.93 6,727
9/22/2017 4 PM EDT 1,006.85 826.90 6,735
9/22/2017 5 PM EDT 1,006.84 826.91 6,739
9/22/2017 6 PM EDT 1,006.80 827.33 7,409
9/22/2017 7 PM EDT 1,006.78 827.41 8,426
9/22/2017 8 PM EDT 1,006.77 827.38 7,233
9/22/2017 9 PM EDT 1,006.75 827.42 8,412
9/22/2017 10 PM EDT 1,006.72 827.40 8,420
9/22/2017 11 PM EDT 1,006.69 827.49 8,412

Elevations are in feet above sea level. Discharges are in cubic feet per second and are reported at the end of the hour.